• Join FlightAware (Why Join?)
  • Login
  • US Flag 
01:36PM EDT


 

Airport Tracker/Info


-or-


 

Live Flight TrackerFlight Track Log ✈ ACA231 ✈ 30-Apr-2013 ✈ CYYC - CYVR

Flight Track Log - Related Links

Times and Time Zones

All times are in EDT time to prevent confusion due to time zone crossing. See the ACA231 flight status page for this flight to view local times or setup timezone preferences in your user account.

Time Position Orientation Groundspeed Altitude Reporting Facility
EDT Latitude Longitude Course Direction KTS MPH feet Rate Location/Type
01:45AM 51.1000 -114.0333 270° West 150 173 5,100  Level Edmonton Center
01:46AM 51.1500 -114.0500 348° North 200 230 7,100 2,220 Climbing Edmonton Center
01:47AM 51.1833 -114.1000 317° Northwest 240 276 9,600 2,760 Climbing Edmonton Center
01:48AM 51.0572 -114.6875 262° West  Level FlightAware Approximate
01:48AM 51.1667 -114.2167 257° West 280 322 12,700  Level Edmonton Center
01:49AM 51.0391 -114.8539 259° West  Level FlightAware Approximate
01:49AM 51.1500 -114.3500 259° West 300 345 15,900  Level Edmonton Center
01:50AM 51.0333 -115.0218 270° West  Level FlightAware Approximate
01:50AM 51.1333 -114.5000 260° West 320 368 18,500  Level Edmonton Center
01:51AM 51.1000 -114.6333 248° West 340 391 21,200 2,280 Climbing Edmonton Center
01:52AM 51.0667 -114.8167 254° West 370 426 23,100 1,980 Climbing Edmonton Center
01:53AM 51.0500 -114.9667 260° West 380 437 25,200 2,040 Climbing Edmonton Center
01:54AM 51.0167 -115.1500 254° West 390 449 27,200 1,800 Climbing Edmonton Center
01:55AM 51.0000 -115.3167 261° West 400 460 28,900 1,680 Climbing Edmonton Center
01:56AM 50.9833 -115.4667 260° West 410 472 30,900 1,860 Climbing Vancouver Center
01:57AM 50.9500 -115.6167 251° West 410 472 32,900 1,800 Climbing Vancouver Center
01:58AM 50.9167 -115.7833 252° West 410 472 34,500 1,500 Climbing Vancouver Center
01:59AM 50.8833 -115.9833 255° West 410 472 35,900 720 Climbing Vancouver Center
02:00AM 50.8333 -116.1500 245° Southwest 410 472 36,000  Climbing Vancouver Center
02:01AM 50.8167 -116.3167 261° West 430 495 36,000  Level Vancouver Center
02:02AM 50.7833 -116.5000 254° West 440 506 36,000  Level Vancouver Center
02:03AM 50.7333 -116.7000 249° West 440 506 36,000  Level Vancouver Center
02:04AM 50.7000 -116.8833 254° West 440 506 36,000  Level Vancouver Center
02:05AM 50.6667 -117.0833 255° West 440 506 36,000  Level Vancouver Center
02:06AM 50.6167 -117.2333 242° Southwest 440 506 36,000  Level Vancouver Center
02:07AM 50.6000 -117.4333 263° West 430 495 36,000  Level Vancouver Center
02:08AM 50.5667 -117.6167 254° West 440 506 36,000  Level Vancouver Center
02:09AM 50.5167 -117.7833 245° Southwest 430 495 36,000  Level Vancouver Center
02:10AM 50.4833 -117.9667 254° West 430 495 36,000  Level Vancouver Center
02:11AM 50.4333 -118.1333 245° Southwest 430 495 36,000  Level Vancouver Center
02:12AM 50.4000 -118.3167 254° West 440 506 36,000  Level Vancouver Center
02:13AM 50.3500 -118.5167 249° West 430 495 36,000  Level Vancouver Center
02:14AM 50.3167 -118.6667 251° West 430 495 36,000  Level Vancouver Center
02:15AM 50.2833 -118.8500 254° West 430 495 36,000  Level Vancouver Center
02:16AM 50.2333 -119.0167 245° Southwest 430 495 36,000  Level Vancouver Center
02:17AM 50.2000 -119.2000 254° West 430 495 36,000  Level Vancouver Center
02:18AM 50.1500 -119.4000 249° West 430 495 36,000  Level Vancouver Center
02:19AM 50.1167 -119.5500 251° West 430 495 36,000  Level Vancouver Center
02:20AM 50.0667 -119.7333 247° West 430 495 36,000  Level Vancouver Center
02:21AM 50.0333 -119.9000 253° West 420 483 36,000  Level Vancouver Center
02:22AM 50.0000 -120.0833 254° West 420 483 36,000  Level Vancouver Center
02:23AM 49.9500 -120.2500 245° Southwest 420 483 36,000  Level Vancouver Center
02:24AM 49.9167 -120.4000 251° West 410 472 36,000  Level Vancouver Center
02:25AM 49.8833 -120.5667 253° West 410 472 36,000  Level Vancouver Center
02:26AM 49.8333 -120.7167 243° Southwest 400 460 36,000  Level Vancouver Center
02:27AM 49.7833 -120.9000 247° West 400 460 36,000 -60 Level Vancouver Center
02:28AM 49.7500 -121.0667 253° West 410 472 35,900 -600 Descending Vancouver Center
02:29AM 49.7167 -121.2167 251° West 410 472 34,900 -1,440 Descending Vancouver Center
02:30AM 49.6833 -121.4000 254° West 410 472 33,100 -2,400 Descending Vancouver Center
02:31AM 49.6333 -121.5500 243° Southwest 420 483 30,100 -2,700 Descending Vancouver Center
02:32AM 49.5833 -121.7167 245° Southwest 420 483 27,700 -2,400 Descending Vancouver Center
02:33AM 49.5500 -121.8667 251° West 400 460 25,300 -2,520 Descending Vancouver Center
02:34AM 49.5167 -122.0500 254° West 390 449 22,700 -2,520 Descending Vancouver Center
02:35AM 49.4500 -122.1833 232° Southwest 390 449 20,300 -2,460 Descending Vancouver Center
02:36AM 49.4000 -122.3167 240° Southwest 380 437 17,800 -2,160 Descending Vancouver Center
02:37AM 49.3500 -122.4333 237° Southwest 370 426 16,000 -2,040 Descending Vancouver Center
02:38AM 49.3000 -122.5667 240° Southwest 360 414 13,800 -2,280 Descending Vancouver Center
02:39AM 49.2500 -122.7333 245° Southwest 350 403 11,500 -1,560 Descending Vancouver Center
02:40AM 49.2333 -122.8500 258° West 330 380 10,700 -720 Descending Vancouver Center
02:41AM 49.2333 -122.9833 270° West 280 322 10,100 -540 Descending Vancouver Center
02:42AM 49.2500 -123.0833 284° West 270 311 9,700 -1,260 Descending Vancouver Center
02:43AM 49.2500 -123.1833 270° West 260 299 7,600 -2,040 Descending Vancouver Center
02:44AM 49.2667 -123.2833 284° West 260 299 5,700 -1,860 Descending Vancouver Center
02:45AM 49.2833 -123.3833 284° West 250 288 3,900 -1,200 Descending Vancouver Center
02:46AM 49.2500 -123.4667 239° Southwest 240 276 3,400 -540 Descending Vancouver Center
02:47AM 49.2000 -123.4167 147° Southeast 220 253 2,900 -780 Descending Vancouver Center
02:48AM 49.1833 -123.3333 107° East 210 242 1,900 -1,020 Descending Vancouver Center